createdAt,value
2018-06-12T00:01:24.102Z,65.00
2018-06-12T00:03:50.895Z,65.80
2018-06-12T00:06:18.233Z,65.00
2018-06-12T00:08:45.036Z,65.00
2018-06-12T00:11:12.103Z,65.10
2018-06-12T00:13:39.039Z,65.10
2018-06-12T00:16:05.831Z,65.10
2018-06-12T00:18:33.495Z,65.20
2018-06-12T00:23:27.756Z,65.20
2018-06-12T00:25:55.159Z,65.20
2018-06-12T00:28:22.028Z,65.10
2018-06-12T00:30:50.425Z,65.20
2018-06-12T00:33:17.292Z,65.20
2018-06-12T00:35:44.753Z,65.20
2018-06-12T00:38:11.528Z,65.20
2018-06-12T00:40:38.410Z,65.30
2018-06-12T00:43:05.210Z,65.40
2018-06-12T00:45:31.939Z,65.40
2018-06-12T00:47:58.921Z,65.30
2018-06-12T00:50:25.755Z,65.30
2018-06-12T00:52:53.064Z,65.40
2018-06-12T00:55:19.770Z,65.50
2018-06-12T00:57:46.506Z,65.40
2018-06-12T01:00:13.812Z,65.50
2018-06-12T01:02:41.164Z,65.40
2018-06-12T01:05:07.864Z,65.50
2018-06-12T01:07:34.590Z,65.40
2018-06-12T01:10:01.372Z,65.30
2018-06-12T01:12:28.080Z,65.40
2018-06-12T01:14:54.770Z,65.50
2018-06-12T01:17:21.450Z,65.50
2018-06-12T01:19:48.267Z,65.50
2018-06-12T01:22:15.048Z,65.60
2018-06-12T01:24:41.756Z,65.60
2018-06-12T01:27:08.836Z,65.60
2018-06-12T01:29:36.320Z,65.60
2018-06-12T01:32:03.181Z,65.60
2018-06-12T01:34:30.004Z,65.60
2018-06-12T01:36:56.882Z,65.70
2018-06-12T01:39:23.853Z,65.80
2018-06-12T01:41:50.928Z,65.70
2018-06-12T01:44:17.761Z,65.70
2018-06-12T01:46:44.662Z,65.70
2018-06-12T01:49:11.603Z,65.80
2018-06-12T01:51:38.657Z,65.80
2018-06-12T01:54:06.220Z,65.80
2018-06-12T01:56:33.001Z,65.90
2018-06-12T01:58:59.751Z,65.80
2018-06-12T02:01:26.443Z,65.90
2018-06-12T02:03:53.199Z,65.80
2018-06-12T02:06:20.145Z,65.90
2018-06-12T02:09:01.628Z,65.80
2018-06-12T02:11:28.368Z,66.00
2018-06-12T02:13:55.172Z,65.90
2018-06-12T02:16:22.092Z,65.90
2018-06-12T02:18:48.900Z,65.90
2018-06-12T02:21:15.746Z,66.00
2018-06-12T02:23:42.668Z,66.00
2018-06-12T02:26:09.633Z,66.00
2018-06-12T02:28:37.093Z,66.00
2018-06-12T02:31:03.918Z,66.10
2018-06-12T02:33:31.448Z,66.10
2018-06-12T02:35:58.240Z,66.10
2018-06-12T02:38:25.009Z,66.20
2018-06-12T02:40:51.804Z,66.10
2018-06-12T02:43:19.353Z,66.10
2018-06-12T02:45:46.209Z,66.20
2018-06-12T02:48:13.359Z,66.20
2018-06-12T02:53:07.536Z,66.20
2018-06-12T02:55:34.453Z,66.20
2018-06-12T02:58:01.479Z,67.00
2018-06-12T03:00:28.454Z,66.30
2018-06-12T03:02:55.240Z,66.20
2018-06-12T03:05:21.998Z,66.30
2018-06-12T03:07:49.548Z,66.30
2018-06-12T03:10:17.352Z,66.30
2018-06-12T03:12:44.296Z,66.40
2018-06-12T03:15:11.078Z,66.30
2018-06-12T03:17:38.166Z,66.30
2018-06-12T03:20:05.593Z,66.40
2018-06-12T03:22:32.443Z,66.70
2018-06-12T03:24:59.198Z,66.40
2018-06-12T03:27:26.231Z,66.40
2018-06-12T03:29:53.114Z,66.40
2018-06-12T03:32:21.093Z,67.20
2018-06-12T03:34:48.042Z,66.40
2018-06-12T03:37:15.397Z,66.40
2018-06-12T03:39:42.391Z,66.40
2018-06-12T03:42:09.144Z,66.50
2018-06-12T03:44:35.880Z,66.50
2018-06-12T03:47:02.600Z,66.50
2018-06-12T03:49:29.554Z,66.60
2018-06-12T03:51:57.479Z,66.50
2018-06-12T03:54:24.479Z,66.50
2018-06-12T03:56:51.239Z,66.60
2018-06-12T03:59:18.004Z,66.60
2018-06-12T04:01:44.769Z,66.60
2018-06-12T04:04:11.468Z,66.70
2018-06-12T04:09:05.812Z,66.60
2018-06-12T04:11:32.658Z,66.70
2018-06-12T04:13:59.601Z,66.60
2018-06-12T04:16:26.613Z,66.60
2018-06-12T04:18:53.510Z,66.70
2018-06-12T04:21:20.487Z,67.50
2018-06-12T04:23:47.308Z,66.80
2018-06-12T04:26:14.122Z,66.70
2018-06-12T04:28:40.938Z,66.70
2018-06-12T04:31:07.784Z,66.80
2018-06-12T04:33:34.560Z,66.80
2018-06-12T04:36:01.518Z,66.80
2018-06-12T04:38:31.947Z,66.90
2018-06-12T04:41:01.936Z,66.90
2018-06-12T04:43:28.803Z,67.50
2018-06-12T04:45:55.666Z,66.90
2018-06-12T04:48:22.986Z,67.00
2018-06-12T04:50:50.080Z,67.00
2018-06-12T04:53:16.894Z,66.90
2018-06-12T04:55:45.286Z,67.00
2018-06-12T04:58:12.143Z,67.10
2018-06-12T05:00:39.068Z,67.10
2018-06-12T05:03:06.209Z,67.70
2018-06-12T05:05:33.546Z,67.10
2018-06-12T05:10:27.873Z,67.20
2018-06-12T05:12:55.188Z,67.20
2018-06-12T05:15:22.538Z,67.10
2018-06-12T05:17:49.330Z,67.20
2018-06-12T05:20:16.122Z,67.20
2018-06-12T05:22:42.864Z,67.20
2018-06-12T05:25:09.657Z,67.20
2018-06-12T05:27:36.450Z,67.20
2018-06-12T05:30:03.328Z,67.10
2018-06-12T05:32:30.203Z,67.20
2018-06-12T05:34:57.351Z,67.30
2018-06-12T05:39:58.865Z,67.30
2018-06-12T05:42:25.754Z,67.40
2018-06-12T05:44:52.585Z,67.40
2018-06-12T05:47:19.364Z,67.40
2018-06-12T05:49:46.153Z,67.40
2018-06-12T05:52:12.950Z,67.40
2018-06-12T05:54:39.779Z,67.40
2018-06-12T05:57:06.512Z,67.40
2018-06-12T05:59:33.321Z,68.20
2018-06-12T06:02:00.133Z,67.40
2018-06-12T06:04:26.917Z,67.40
2018-06-12T06:06:53.653Z,67.50
2018-06-12T06:09:20.489Z,67.50
2018-06-12T06:11:47.254Z,67.50
2018-06-12T06:14:14.053Z,67.50
2018-06-12T06:16:40.869Z,67.50
2018-06-12T06:19:07.665Z,67.60
2018-06-12T06:21:34.527Z,67.60
2018-06-12T06:24:01.305Z,67.60
2018-06-12T06:26:28.177Z,68.20
2018-06-12T06:28:55.082Z,67.70
2018-06-12T06:31:21.911Z,67.70
2018-06-12T06:33:48.792Z,67.70
2018-06-12T06:36:15.520Z,67.80
2018-06-12T06:38:42.321Z,67.80
2018-06-12T06:41:10.083Z,67.80
2018-06-12T06:43:36.853Z,67.80
2018-06-12T06:46:03.636Z,67.80
2018-06-12T06:48:30.374Z,67.80
2018-06-12T06:50:57.176Z,68.60
2018-06-12T06:55:51.414Z,67.90
2018-06-12T06:58:18.308Z,68.00
2018-06-12T07:00:45.267Z,68.00
2018-06-12T07:03:12.216Z,68.00
2018-06-12T07:05:39.027Z,68.00
2018-06-12T07:08:05.844Z,68.00
2018-06-12T07:10:32.643Z,68.10
2018-06-12T07:12:59.407Z,68.00
2018-06-12T07:15:26.323Z,68.00
2018-06-12T07:17:53.077Z,68.10
2018-06-12T07:20:19.845Z,68.10
2018-06-12T07:22:46.713Z,68.10
2018-06-12T07:25:13.563Z,68.10
2018-06-12T07:27:40.369Z,68.10
2018-06-12T07:30:16.282Z,68.20
2018-06-12T07:32:45.057Z,68.10
2018-06-12T07:35:11.917Z,68.10
2018-06-12T07:40:05.930Z,68.20
2018-06-12T07:42:32.745Z,68.20
2018-06-12T07:45:11.637Z,68.20
2018-06-12T07:47:40.529Z,67.80
2018-06-12T07:52:58.214Z,68.00
2018-06-12T07:55:37.899Z,68.10
2018-06-12T08:00:35.342Z,68.20
2018-06-12T08:03:02.297Z,68.20
2018-06-12T08:05:36.353Z,68.20
2018-06-12T08:08:05.286Z,68.20
2018-06-12T08:10:36.743Z,68.20
2018-06-12T08:13:04.412Z,68.20
2018-06-12T08:15:31.288Z,68.20
2018-06-12T08:17:58.126Z,68.20
2018-06-12T08:20:24.975Z,68.30
2018-06-12T08:22:51.909Z,68.30
2018-06-12T08:25:18.845Z,68.30
2018-06-12T08:27:45.821Z,68.20
2018-06-12T08:30:12.622Z,68.30
2018-06-12T08:32:39.494Z,68.30
2018-06-12T08:35:06.409Z,68.30
2018-06-12T08:37:33.237Z,68.30
2018-06-12T08:40:00.138Z,68.30
2018-06-12T08:42:27.205Z,68.30
2018-06-12T08:44:54.576Z,68.30
2018-06-12T08:47:21.337Z,68.30
2018-06-12T08:49:48.306Z,68.30
2018-06-12T08:52:15.153Z,68.30
2018-06-12T08:54:42.453Z,68.20
2018-06-12T08:57:09.285Z,68.30
2018-06-12T08:59:36.036Z,68.30
2018-06-12T09:02:02.945Z,68.30
2018-06-12T09:04:30.457Z,68.20
2018-06-12T09:06:58.425Z,68.20
2018-06-12T09:09:25.237Z,68.40
2018-06-12T09:11:52.183Z,67.80
2018-06-12T09:14:19.187Z,67.50
2018-06-12T09:16:47.264Z,67.50
2018-06-12T09:19:15.348Z,67.50
2018-06-12T09:21:42.314Z,67.80
2018-06-12T09:24:09.139Z,67.70
2018-06-12T09:26:35.980Z,67.70
2018-06-12T09:29:02.770Z,67.80
2018-06-12T09:31:29.755Z,67.80
2018-06-12T09:33:56.562Z,67.80
2018-06-12T09:36:28.904Z,67.80
2018-06-12T09:38:56.368Z,67.80
2018-06-12T09:41:23.331Z,67.80
2018-06-12T09:43:50.164Z,67.90
2018-06-12T09:46:17.106Z,67.90
2018-06-12T09:48:44.070Z,67.80
2018-06-12T09:51:10.942Z,67.80
2018-06-12T09:53:37.924Z,67.90
2018-06-12T09:56:04.721Z,67.80
2018-06-12T09:58:31.623Z,67.80
2018-06-12T10:01:03.990Z,67.80
2018-06-12T10:03:30.819Z,67.80
2018-06-12T10:05:58.451Z,67.80
2018-06-12T10:08:26.621Z,67.80
2018-06-12T10:10:54.415Z,67.70
2018-06-12T10:13:21.938Z,67.70
2018-06-12T10:15:48.823Z,67.70
2018-06-12T10:18:15.736Z,67.70
2018-06-12T10:20:42.528Z,67.60
2018-06-12T10:23:10.225Z,67.60
2018-06-12T10:25:38.371Z,67.60
2018-06-12T10:28:05.490Z,67.60
2018-06-12T10:30:32.955Z,67.50
2018-06-12T10:35:28.251Z,67.50
2018-06-12T10:37:55.002Z,67.50
2018-06-12T10:40:22.096Z,67.50
2018-06-12T10:42:48.867Z,67.50
2018-06-12T10:45:15.609Z,67.50
2018-06-12T10:47:43.311Z,68.30
2018-06-12T10:50:10.147Z,67.40
2018-06-12T10:52:37.233Z,67.40
2018-06-12T10:55:04.808Z,67.30
2018-06-12T10:57:31.598Z,67.30
2018-06-12T10:59:59.025Z,67.30
2018-06-12T11:02:25.775Z,68.00
2018-06-12T11:04:53.394Z,67.30
2018-06-12T11:07:20.146Z,67.20
2018-06-12T11:09:47.557Z,67.20
2018-06-12T11:12:14.299Z,67.20
2018-06-12T11:14:41.291Z,67.20
2018-06-12T11:17:09.562Z,67.10
2018-06-12T11:19:37.070Z,67.10
2018-06-12T11:22:07.509Z,67.10
2018-06-12T11:24:34.324Z,67.00
2018-06-12T11:27:01.067Z,67.00
2018-06-12T11:29:27.821Z,67.00
2018-06-12T11:31:55.262Z,67.00
2018-06-12T11:34:22.297Z,66.90
2018-06-12T11:36:49.015Z,67.70
2018-06-12T11:39:15.769Z,66.90
2018-06-12T11:41:43.299Z,67.00
2018-06-12T11:44:10.021Z,66.90
2018-06-12T11:46:36.719Z,66.90
2018-06-12T11:49:03.443Z,66.90
2018-06-12T11:51:31.159Z,66.90
2018-06-12T11:53:57.942Z,67.30
2018-06-12T11:56:25.275Z,66.90
2018-06-12T11:58:52.151Z,67.40
2018-06-12T12:01:19.648Z,66.80
2018-06-12T12:03:46.474Z,66.80
2018-06-12T12:06:13.704Z,66.70
2018-06-12T12:08:40.688Z,66.60
2018-06-12T12:11:07.503Z,66.80
2018-06-12T12:13:34.368Z,66.80
2018-06-12T12:16:01.165Z,66.70
2018-06-12T12:18:27.856Z,66.70
2018-06-12T12:20:54.526Z,66.80
2018-06-12T12:23:21.278Z,66.70
2018-06-12T12:25:48.094Z,66.80
2018-06-12T12:28:15.772Z,66.70
2018-06-12T12:30:42.580Z,66.80
2018-06-12T12:33:09.292Z,66.80
2018-06-12T12:35:36.030Z,66.80
2018-06-12T12:38:02.737Z,66.80
2018-06-12T12:40:29.769Z,66.80
2018-06-12T12:42:56.511Z,66.80
2018-06-12T12:45:23.348Z,66.90
2018-06-12T12:47:50.063Z,67.00
2018-06-12T12:50:17.758Z,66.90
2018-06-12T12:52:46.100Z,66.90
2018-06-12T12:55:12.876Z,66.90
2018-06-12T12:57:40.572Z,67.00
2018-06-12T13:00:07.600Z,66.90
2018-06-12T13:02:34.453Z,67.00
2018-06-12T13:05:01.339Z,67.00
2018-06-12T13:07:28.191Z,67.00
2018-06-12T13:17:17.986Z,67.10
2018-06-12T13:19:44.990Z,67.00
2018-06-12T13:22:11.747Z,67.00
2018-06-12T13:24:38.468Z,67.10
2018-06-12T13:27:06.153Z,67.00
2018-06-12T13:29:32.918Z,67.00
2018-06-12T13:32:00.279Z,67.10
2018-06-12T13:34:27.020Z,66.90
2018-06-12T13:36:53.742Z,67.10
2018-06-12T13:39:20.438Z,67.10
2018-06-12T13:41:47.442Z,67.10
2018-06-12T13:44:14.783Z,67.10
2018-06-12T13:46:42.515Z,67.20
2018-06-12T13:49:10.524Z,67.10
2018-06-12T13:56:42.265Z,67.20
2018-06-12T13:59:09.779Z,68.00
2018-06-12T14:01:37.791Z,67.20
2018-06-12T14:04:04.501Z,67.20
2018-06-12T14:06:31.437Z,67.20
2018-06-12T14:08:58.489Z,67.20
2018-06-12T14:11:25.316Z,67.20
2018-06-12T14:13:52.001Z,67.30
2018-06-12T14:16:19.025Z,67.40
2018-06-12T14:18:46.769Z,67.50
2018-06-12T14:21:13.636Z,67.50
2018-06-12T14:23:40.718Z,67.50
2018-06-12T14:26:07.734Z,66.80
2018-06-12T14:28:34.540Z,67.50
2018-06-12T14:31:01.974Z,67.50
2018-06-12T14:33:29.396Z,68.30
2018-06-12T14:35:56.338Z,67.60
2018-06-12T14:38:23.936Z,67.60
2018-06-12T14:40:50.790Z,67.60
2018-06-12T14:43:17.562Z,67.70
2018-06-12T14:45:44.537Z,67.70
2018-06-12T14:48:12.373Z,67.70
2018-06-12T14:50:39.134Z,67.70
2018-06-12T14:53:06.508Z,67.80
2018-06-12T14:55:33.986Z,67.80
2018-06-12T14:58:01.022Z,67.90
2018-06-12T15:00:28.266Z,67.80
2018-06-12T15:08:27.516Z,67.90
2018-06-12T15:10:54.360Z,67.90
2018-06-12T15:13:21.119Z,68.00
2018-06-12T15:15:47.932Z,68.00
2018-06-12T15:18:14.844Z,68.00
2018-06-12T15:20:41.780Z,68.00
2018-06-12T15:23:08.739Z,68.10
2018-06-12T15:25:35.592Z,68.50
2018-06-12T15:30:29.621Z,68.30
2018-06-12T15:32:56.481Z,68.20
2018-06-12T15:35:23.200Z,68.20
2018-06-12T15:37:50.028Z,68.30
2018-06-12T15:40:17.508Z,68.30
2018-06-12T15:42:44.982Z,68.20
2018-06-12T15:45:11.844Z,68.30
2018-06-12T15:47:38.689Z,68.30
2018-06-12T15:50:06.223Z,68.30
2018-06-12T15:52:33.166Z,68.30
2018-06-12T15:54:59.939Z,68.40
2018-06-12T15:57:26.801Z,68.40
2018-06-12T15:59:54.513Z,68.50
2018-06-12T16:02:21.564Z,68.50
2018-06-12T16:04:48.609Z,68.50
2018-06-12T16:07:15.471Z,69.40
2018-06-12T16:09:42.264Z,68.00
2018-06-12T16:12:09.227Z,68.60
2018-06-12T16:14:36.074Z,68.60
2018-06-12T16:17:02.871Z,68.60
2018-06-12T16:19:30.840Z,68.60
2018-06-12T16:21:57.721Z,68.70
2018-06-12T16:24:24.639Z,68.70
2018-06-12T16:29:19.066Z,69.50
2018-06-12T16:31:45.832Z,68.70
2018-06-12T16:34:12.559Z,68.80
2018-06-12T16:36:39.477Z,68.80
2018-06-12T16:39:06.489Z,68.80
2018-06-12T16:41:33.922Z,68.90
2018-06-12T16:44:01.235Z,68.90
2018-06-12T16:46:28.019Z,68.80
2018-06-12T16:48:55.037Z,68.90
2018-06-12T16:51:21.894Z,68.90
2018-06-12T16:53:49.390Z,68.90
2018-06-12T16:56:16.225Z,68.90
2018-06-12T16:58:43.072Z,68.90
2018-06-12T17:01:10.277Z,68.90
2018-06-12T17:06:04.533Z,68.80
2018-06-12T17:08:32.064Z,68.90
2018-06-12T17:10:58.757Z,68.80
2018-06-12T17:13:26.234Z,68.80
2018-06-12T17:15:53.023Z,68.80
2018-06-12T17:18:20.337Z,68.80
2018-06-12T17:20:47.871Z,68.80
2018-06-12T17:23:14.663Z,68.70
2018-06-12T17:25:42.181Z,68.70
2018-06-12T17:28:08.925Z,68.60
2018-06-12T17:30:36.368Z,68.60
2018-06-12T17:44:06.751Z,68.50
2018-06-12T17:46:45.545Z,69.30
2018-06-12T17:49:14.988Z,68.40
2018-06-12T17:51:41.932Z,68.40
2018-06-12T17:54:08.681Z,68.50
2018-06-12T17:56:35.479Z,68.50
2018-06-12T17:59:02.315Z,68.40
2018-06-12T18:01:29.063Z,68.40
2018-06-12T18:03:55.921Z,68.30
2018-06-12T18:06:22.812Z,68.40
2018-06-12T18:08:49.666Z,68.30
2018-06-12T18:11:16.534Z,68.30
2018-06-12T18:13:43.372Z,68.30
2018-06-12T18:16:10.232Z,68.30
2018-06-12T18:18:37.166Z,68.30
2018-06-12T18:21:04.072Z,68.20
2018-06-12T18:23:30.950Z,68.20
2018-06-12T18:25:57.788Z,68.20
2018-06-12T18:28:24.657Z,68.20
2018-06-12T18:30:51.478Z,68.20
2018-06-12T18:33:18.227Z,68.10
2018-06-12T18:35:44.914Z,68.20
2018-06-12T18:38:11.680Z,68.10
2018-06-12T18:40:38.457Z,68.10
2018-06-12T18:43:05.305Z,68.10
2018-06-12T18:45:32.090Z,68.10
2018-06-12T18:47:58.861Z,68.10
2018-06-12T18:50:25.610Z,68.10
2018-06-12T18:52:52.299Z,68.10
2018-06-12T18:55:19.050Z,68.10
2018-06-12T18:57:45.963Z,68.10
2018-06-12T19:00:12.698Z,68.10
2018-06-12T19:02:39.505Z,68.10
2018-06-12T19:05:06.286Z,68.00
2018-06-12T19:07:33.120Z,68.00
2018-06-12T19:10:00.044Z,68.00
2018-06-12T19:12:26.878Z,67.90
2018-06-12T19:14:53.814Z,68.80
2018-06-12T19:17:20.715Z,68.00
2018-06-12T19:19:47.500Z,67.90
2018-06-12T19:22:14.267Z,67.90
2018-06-12T19:24:41.051Z,67.80
2018-06-12T19:27:07.892Z,67.80
2018-06-12T19:29:34.703Z,67.80
2018-06-12T19:32:01.650Z,67.80
2018-06-12T19:34:28.432Z,67.70
2018-06-12T19:36:55.216Z,67.70
2018-06-12T19:39:22.051Z,67.80
2018-06-12T19:41:48.985Z,67.70
2018-06-12T19:44:15.921Z,67.70
2018-06-12T19:46:42.755Z,67.70
2018-06-12T19:49:09.551Z,67.70
2018-06-12T19:51:36.381Z,67.50
2018-06-12T19:54:03.104Z,67.70
2018-06-12T19:56:29.925Z,67.70
2018-06-12T19:58:56.838Z,67.60
2018-06-12T20:01:23.630Z,67.60
2018-06-12T20:03:50.394Z,67.60
2018-06-12T20:06:17.173Z,67.60
2018-06-12T20:08:43.923Z,67.60
2018-06-12T20:11:10.732Z,67.50
2018-06-12T20:13:37.596Z,67.50
2018-06-12T20:16:04.390Z,67.60
2018-06-12T20:18:31.355Z,67.50
2018-06-12T20:20:58.102Z,67.50
2018-06-12T20:23:24.889Z,67.50
2018-06-12T20:25:51.688Z,67.40
2018-06-12T20:28:18.479Z,67.50
2018-06-12T20:30:48.446Z,67.50
2018-06-12T20:33:16.468Z,67.40
2018-06-12T20:35:43.626Z,67.30
2018-06-12T20:38:10.509Z,67.30
2018-06-12T20:40:37.272Z,67.30
2018-06-12T20:43:04.202Z,67.30
2018-06-12T20:45:31.136Z,67.30
2018-06-12T20:47:58.032Z,67.30
2018-06-12T20:50:25.024Z,67.30
2018-06-12T20:52:51.871Z,67.20
2018-06-12T20:55:18.767Z,67.20
2018-06-12T20:57:45.608Z,67.30
2018-06-12T21:00:12.510Z,67.30
2018-06-12T21:02:39.412Z,68.00
2018-06-12T21:05:06.147Z,67.20
2018-06-12T21:07:32.894Z,67.20
2018-06-12T21:09:59.657Z,67.20
2018-06-12T21:12:26.435Z,67.30
2018-06-12T21:14:53.187Z,67.20
2018-06-12T21:17:19.963Z,67.10
2018-06-12T21:19:46.721Z,67.10
2018-06-12T21:22:13.472Z,67.10
2018-06-12T21:24:40.261Z,67.10
2018-06-12T21:27:07.030Z,67.10
2018-06-12T21:29:33.786Z,67.10
2018-06-12T21:32:00.539Z,67.10
2018-06-12T21:34:27.273Z,67.10
2018-06-12T21:36:54.271Z,67.10
2018-06-12T21:39:21.396Z,67.10
2018-06-12T21:41:48.236Z,67.10
2018-06-12T21:44:15.052Z,67.10
2018-06-12T21:46:41.773Z,67.10
2018-06-12T21:49:08.501Z,67.10
2018-06-12T21:51:35.167Z,67.10
2018-06-12T21:54:01.952Z,67.80
2018-06-12T21:56:28.704Z,67.10
2018-06-12T21:58:55.505Z,67.10
2018-06-12T22:01:22.318Z,67.10
2018-06-12T22:03:49.140Z,67.00
2018-06-12T22:06:15.980Z,67.10
2018-06-12T22:08:42.977Z,67.00
2018-06-12T22:11:09.827Z,67.00
2018-06-12T22:13:36.578Z,67.00
2018-06-12T22:16:03.373Z,67.10
2018-06-12T22:18:30.128Z,67.00
2018-06-12T22:20:56.932Z,67.10
2018-06-12T22:23:23.720Z,67.00
2018-06-12T22:25:50.474Z,67.00
2018-06-12T22:28:17.238Z,67.00
2018-06-12T22:30:44.031Z,67.00
2018-06-12T22:33:10.812Z,67.00
2018-06-12T22:35:37.478Z,67.00
2018-06-12T22:38:04.266Z,67.00
2018-06-12T22:40:30.969Z,67.10
2018-06-12T22:42:57.742Z,67.10
2018-06-12T22:45:24.456Z,66.90
2018-06-12T22:47:51.164Z,67.00
2018-06-12T22:50:17.992Z,67.00
2018-06-12T22:52:44.778Z,67.00
2018-06-12T22:55:11.485Z,66.90
2018-06-12T22:57:38.128Z,67.00
2018-06-12T23:00:04.936Z,66.90
2018-06-12T23:02:31.781Z,67.80
2018-06-12T23:04:58.518Z,67.00
2018-06-12T23:07:25.321Z,66.90
2018-06-12T23:09:52.122Z,66.90
2018-06-12T23:12:18.839Z,67.00
2018-06-12T23:14:46.552Z,67.00
2018-06-12T23:17:13.421Z,67.00
2018-06-12T23:19:40.092Z,67.00
2018-06-12T23:22:06.860Z,67.00
2018-06-12T23:24:33.563Z,66.90
2018-06-12T23:27:00.295Z,66.80
2018-06-12T23:29:27.115Z,67.10
2018-06-12T23:31:53.885Z,67.00
2018-06-12T23:34:20.637Z,67.10
2018-06-12T23:36:47.363Z,67.00
2018-06-12T23:39:14.159Z,67.10
2018-06-12T23:41:40.886Z,67.10
2018-06-12T23:44:07.726Z,67.10
2018-06-12T23:46:34.486Z,67.10
2018-06-12T23:49:01.296Z,67.10
2018-06-12T23:51:28.070Z,67.10
2018-06-12T23:53:54.750Z,67.20
2018-06-12T23:56:21.439Z,67.10
2018-06-12T23:58:48.130Z,67.20
